Time;durP1;ratioP1;P1;durP2;ratioP2;P2;SDS_P1;SDS_P2;PMS_P1;PMS_P2;Temp;Humidity;BMP_temperature;BMP_pressure;BME280_temperature;BME280_humidity;BME280_pressure;Samples;Min_cycle;Max_cycle;Signal;HPM_P1;HPM_P2
2024/02/25 00:00:14;;;;;;;5.23;1.87;;;5.20;99.90;;;;;;5054216;28;20167;-69
2024/02/25 00:02:43;;;;;;;5.57;1.40;;;5.20;99.90;;;;;;5054038;28;20167;-69
2024/02/25 00:05:09;;;;;;;2.57;1.37;;;5.30;99.90;;;;;;5054122;28;20411;-70
2024/02/25 00:07:35;;;;;;;1.87;1.17;;;5.20;99.90;;;;;;5054021;28;20414;-69
2024/02/25 00:10:04;;;;;;;2.17;1.50;;;5.30;99.90;;;;;;5053708;28;20434;-69
2024/02/25 00:12:30;;;;;;;1.40;1.20;;;5.30;99.90;;;;;;5053736;28;20409;-70
2024/02/25 00:14:55;;;;;;;2.10;1.53;;;5.40;99.90;;;;;;5050484;28;20417;-69
2024/02/25 00:17:21;;;;;;;1.30;1.20;;;5.30;99.90;;;;;;5051170;28;20285;-70
2024/02/25 00:19:46;;;;;;;1.50;1.40;;;5.30;99.90;;;;;;5053723;28;20186;-69
2024/02/25 00:22:12;;;;;;;1.57;1.40;;;5.30;99.90;;;;;;5053643;28;20237;-69
2024/02/25 00:24:38;;;;;;;1.60;1.43;;;5.30;99.90;;;;;;5053745;28;20163;-70
2024/02/25 00:27:04;;;;;;;3.33;1.60;;;5.30;99.90;;;;;;5052384;28;20240;-70
2024/02/25 00:29:29;;;;;;;2.60;1.77;;;5.40;99.90;;;;;;5047668;28;20441;-69
2024/02/25 00:31:55;;;;;;;5.50;1.57;;;5.40;99.90;;;;;;5053206;28;20408;-69
2024/02/25 00:34:20;;;;;;;3.10;1.00;;;5.40;99.90;;;;;;5052776;28;20586;-70
2024/02/25 00:36:48;;;;;;;2.30;1.57;;;5.40;99.90;;;;;;5040728;28;20244;-70
2024/02/25 00:39:16;;;;;;;2.40;1.00;;;5.50;99.90;;;;;;5051517;28;20170;-70
2024/02/25 00:41:43;;;;;;;1.70;1.10;;;5.60;99.90;;;;;;5053075;28;20419;-71
2024/02/25 00:44:09;;;;;;;4.30;1.60;;;5.70;99.90;;;;;;5053358;28;20432;-70
2024/02/25 00:46:35;;;;;;;2.90;1.00;;;5.70;99.90;;;;;;5053199;28;20436;-70
2024/02/25 00:49:00;;;;;;;1.00;0.80;;;5.80;99.90;;;;;;5053269;28;20405;-70
2024/02/25 00:51:26;;;;;;;1.47;1.27;;;5.80;99.90;;;;;;5053301;28;20171;-70
2024/02/25 00:53:52;;;;;;;1.10;1.00;;;5.80;99.90;;;;;;5053079;28;20189;-70
2024/02/25 00:56:17;;;;;;;1.97;1.10;;;5.90;99.90;;;;;;5053159;28;20451;-70
2024/02/25 00:58:43;;;;;;;1.70;1.13;;;5.90;99.90;;;;;;5052804;28;20254;-70
2024/02/25 01:01:14;;;;;;;1.30;0.90;;;5.90;99.90;;;;;;5052865;28;20166;-70
2024/02/25 01:03:41;;;;;;;1.00;0.90;;;5.90;99.90;;;;;;5051698;28;20174;-70
2024/02/25 01:06:07;;;;;;;1.20;0.80;;;5.90;99.90;;;;;;5049765;28;20421;-71
2024/02/25 01:08:36;;;;;;;0.90;0.80;;;5.90;99.90;;;;;;5052723;28;20478;-71
2024/02/25 01:11:02;;;;;;;1.83;1.10;;;5.90;99.90;;;;;;5052567;28;20174;-71
2024/02/25 01:13:27;;;;;;;2.07;1.20;;;5.90;99.90;;;;;;5051659;28;20920;-69
2024/02/25 01:15:54;;;;;;;3.47;1.33;;;5.90;99.90;;;;;;5052814;28;20230;-69
2024/02/25 01:18:19;;;;;;;1.10;0.97;;;5.90;99.90;;;;;;5052704;28;20680;-70
2024/02/25 01:20:45;;;;;;;1.10;0.90;;;5.90;99.90;;;;;;5052780;28;20476;-70
2024/02/25 01:23:10;;;;;;;5.97;1.50;;;5.90;99.90;;;;;;5052474;28;20171;-69
2024/02/25 01:25:36;;;;;;;1.27;0.90;;;5.80;99.90;;;;;;5052678;28;20170;-70
2024/02/25 01:28:01;;;;;;;0.80;0.73;;;5.80;99.90;;;;;;5047411;28;20191;-69
2024/02/25 01:30:27;;;;;;;1.63;1.07;;;5.80;99.90;;;;;;5051892;28;20182;-70
2024/02/25 01:32:53;;;;;;;1.83;0.93;;;5.80;99.90;;;;;;5052180;28;20220;-69
2024/02/25 01:35:18;;;;;;;2.10;1.10;;;5.90;99.90;;;;;;5052504;28;20599;-70
2024/02/25 01:37:44;;;;;;;2.40;1.10;;;5.90;99.90;;;;;;5052260;28;20186;-70
2024/02/25 01:40:09;;;;;;;1.10;0.80;;;5.80;99.90;;;;;;5052208;28;20261;-70
2024/02/25 01:42:37;;;;;;;3.53;0.80;;;5.80;99.90;;;;;;5051819;28;20531;-70
2024/02/25 01:45:02;;;;;;;3.90;0.90;;;5.80;99.90;;;;;;5052329;28;20232;-69
2024/02/25 01:47:29;;;;;;;1.47;0.90;;;5.80;99.90;;;;;;5051927;28;20429;-70
2024/02/25 01:49:55;;;;;;;1.17;1.00;;;5.90;99.90;;;;;;5051315;28;20840;-70
2024/02/25 01:52:22;;;;;;;1.00;0.80;;;6.00;99.90;;;;;;5050574;28;20425;-70
2024/02/25 01:54:49;;;;;;;1.50;0.90;;;6.00;99.90;;;;;;5044985;28;20425;-70
2024/02/25 01:57:15;;;;;;;1.30;0.80;;;6.00;99.90;;;;;;5050808;28;20468;-70
2024/02/25 01:59:41;;;;;;;1.63;0.90;;;6.00;99.90;;;;;;5049451;28;20423;-70
2024/02/25 02:02:13;;;;;;;0.90;0.60;;;6.10;99.90;;;;;;5051523;28;20172;-70
2024/02/25 02:04:42;;;;;;;1.77;0.60;;;6.10;99.90;;;;;;5032119;28;20406;-69
2024/02/25 02:07:12;;;;;;;0.87;0.70;;;6.10;99.90;;;;;;5031855;28;20441;-70
2024/02/25 02:09:38;;;;;;;0.93;0.80;;;6.10;99.90;;;;;;5030816;28;20471;-70
2024/02/25 02:12:04;;;;;;;1.00;0.67;;;6.20;99.90;;;;;;5031773;28;20501;-70
2024/02/25 02:14:30;;;;;;;2.13;1.17;;;6.20;99.90;;;;;;5031931;28;20163;-70
2024/02/25 02:16:56;;;;;;;1.03;0.80;;;6.20;99.90;;;;;;5031680;28;20461;-71
2024/02/25 02:19:22;;;;;;;1.50;0.70;;;6.10;99.90;;;;;;5031697;28;20395;-70
2024/02/25 02:21:54;;;;;;;3.80;0.60;;;6.10;99.90;;;;;;5031709;28;20164;-70
2024/02/25 02:24:20;;;;;;;0.97;0.63;;;6.00;99.90;;;;;;5031770;28;20239;-71
2024/02/25 02:26:45;;;;;;;2.13;1.00;;;6.00;99.90;;;;;;5031699;28;20426;-70
2024/02/25 02:29:11;;;;;;;0.90;0.60;;;5.90;99.90;;;;;;5047406;28;20206;-70
2024/02/25 02:31:36;;;;;;;0.80;0.60;;;5.90;99.90;;;;;;5043209;28;20178;-70
2024/02/25 02:34:02;;;;;;;1.10;0.70;;;5.90;99.90;;;;;;5049287;28;20175;-70
2024/02/25 02:36:27;;;;;;;0.90;0.60;;;5.80;99.90;;;;;;5050846;28;20199;-70
2024/02/25 02:38:53;;;;;;;1.57;0.87;;;5.80;99.90;;;;;;5051498;28;20190;-70
2024/02/25 02:41:23;;;;;;;0.80;0.70;;;5.90;99.90;;;;;;5051247;28;20173;-70
2024/02/25 02:43:48;;;;;;;0.80;0.60;;;6.00;99.90;;;;;;5051561;28;20548;-70
2024/02/25 02:46:14;;;;;;;0.80;0.60;;;6.00;99.90;;;;;;5051431;28;20412;-70
2024/02/25 02:48:39;;;;;;;1.00;0.70;;;6.10;99.90;;;;;;5051583;28;20171;-70
2024/02/25 02:51:05;;;;;;;1.00;0.70;;;6.10;99.90;;;;;;5051290;28;20167;-70
2024/02/25 02:53:30;;;;;;;1.70;0.60;;;6.20;99.90;;;;;;5051240;28;20190;-70
2024/02/25 02:55:56;;;;;;;0.90;0.50;;;6.20;99.90;;;;;;5051415;28;20217;-70
2024/02/25 02:58:21;;;;;;;0.80;0.60;;;6.30;99.90;;;;;;5051382;28;20674;-70
2024/02/25 03:00:47;;;;;;;0.87;0.67;;;6.30;99.90;;;;;;5048730;28;20186;-70
2024/02/25 03:03:12;;;;;;;0.80;0.70;;;6.20;99.90;;;;;;5053862;28;20203;-70
2024/02/25 03:05:38;;;;;;;0.90;0.70;;;6.20;99.90;;;;;;5055362;28;20607;-70
2024/02/25 03:08:04;;;;;;;1.50;0.70;;;6.10;99.90;;;;;;5055192;28;20316;-70
2024/02/25 03:10:30;;;;;;;0.90;0.60;;;6.10;99.90;;;;;;5055423;28;20167;-70
2024/02/25 03:12:55;;;;;;;1.27;0.70;;;6.20;99.90;;;;;;5053731;28;20178;-70
2024/02/25 03:15:21;;;;;;;1.13;0.80;;;6.20;99.90;;;;;;5055060;28;20444;-70
2024/02/25 03:17:46;;;;;;;1.00;0.67;;;6.30;99.90;;;;;;5055000;28;20193;-70
2024/02/25 03:20:13;;;;;;;0.83;0.70;;;6.30;99.90;;;;;;5055033;28;20185;-70
2024/02/25 03:22:38;;;;;;;0.80;0.60;;;6.20;99.90;;;;;;5054771;28;20155;-70
2024/02/25 03:25:08;;;;;;;1.90;1.33;;;6.30;99.90;;;;;;5054987;28;20767;-70
2024/02/25 03:27:35;;;;;;;0.80;0.60;;;6.30;99.90;;;;;;5051108;28;20216;-70
2024/02/25 03:30:00;;;;;;;1.10;0.80;;;6.30;99.90;;;;;;5053808;28;20410;-70
2024/02/25 03:32:26;;;;;;;1.20;0.77;;;6.30;99.90;;;;;;5054389;28;20412;-70
2024/02/25 03:34:51;;;;;;;0.70;0.50;;;6.30;99.90;;;;;;5054758;28;20246;-70
2024/02/25 03:37:17;;;;;;;1.00;0.60;;;6.30;99.90;;;;;;5054573;28;20213;-70
2024/02/25 03:39:42;;;;;;;3.13;0.90;;;6.10;99.90;;;;;;5054723;28;20163;-70
2024/02/25 03:42:08;;;;;;;1.07;0.70;;;6.10;99.90;;;;;;5054400;28;20668;-70
2024/02/25 03:44:33;;;;;;;1.70;0.77;;;6.20;99.90;;;;;;5054541;28;20658;-70
2024/02/25 03:46:58;;;;;;;1.30;0.70;;;6.10;99.90;;;;;;5054598;28;20195;-70
2024/02/25 03:49:24;;;;;;;1.67;0.93;;;6.20;99.90;;;;;;5054518;28;20171;-70
2024/02/25 03:51:49;;;;;;;1.30;0.90;;;6.20;99.90;;;;;;5054271;28;20658;-70
2024/02/25 03:54:15;;;;;;;1.37;0.70;;;6.30;99.90;;;;;;5054277;28;20231;-70
2024/02/25 03:56:40;;;;;;;0.90;0.60;;;6.30;99.90;;;;;;5054236;28;20195;-70
2024/02/25 03:59:06;;;;;;;0.77;0.50;;;6.30;99.90;;;;;;5047818;28;20436;-71
2024/02/25 04:01:32;;;;;;;0.80;0.60;;;6.40;99.90;;;;;;5053542;28;20175;-70
2024/02/25 04:03:57;;;;;;;1.10;0.80;;;6.40;99.90;;;;;;5054164;28;20166;-70
2024/02/25 04:06:24;;;;;;;0.70;0.50;;;6.30;99.90;;;;;;5054058;28;20249;-70
2024/02/25 04:08:49;;;;;;;1.10;0.70;;;6.30;99.90;;;;;;5054239;28;20171;-70
2024/02/25 04:11:15;;;;;;;0.70;0.60;;;6.40;99.90;;;;;;5053394;28;20416;-70
2024/02/25 04:13:40;;;;;;;1.23;0.70;;;6.30;99.90;;;;;;5053289;28;20170;-70
2024/02/25 04:16:06;;;;;;;0.90;0.70;;;6.30;99.90;;;;;;5053682;28;20258;-70
2024/02/25 04:18:31;;;;;;;1.20;0.80;;;6.30;99.90;;;;;;5053964;28;20190;-70
2024/02/25 04:20:57;;;;;;;1.10;0.70;;;6.30;99.90;;;;;;5053764;28;20657;-69
2024/02/25 04:23:23;;;;;;;2.30;0.70;;;6.30;99.90;;;;;;5053837;28;20194;-70
2024/02/25 04:25:49;;;;;;;2.10;0.70;;;6.30;99.90;;;;;;5054199;28;20254;-70
2024/02/25 04:28:14;;;;;;;0.80;0.63;;;6.30;99.90;;;;;;5047278;28;20530;-70
2024/02/25 04:30:40;;;;;;;0.83;0.60;;;6.30;99.90;;;;;;5053387;28;20181;-70
2024/02/25 04:33:05;;;;;;;1.30;0.70;;;6.20;99.90;;;;;;5053287;28;20242;-70
2024/02/25 04:35:31;;;;;;;0.90;0.70;;;6.10;99.90;;;;;;5053638;28;20229;-70
2024/02/25 04:37:56;;;;;;;1.00;0.70;;;6.00;99.90;;;;;;5053562;28;20215;-71
2024/02/25 04:40:22;;;;;;;1.30;0.70;;;6.00;99.90;;;;;;5053557;28;20169;-70
2024/02/25 04:42:47;;;;;;;1.93;0.60;;;6.00;99.90;;;;;;5053240;28;20326;-70
2024/02/25 04:45:13;;;;;;;1.00;0.80;;;6.00;99.90;;;;;;5053310;28;20171;-70
2024/02/25 04:47:38;;;;;;;0.70;0.50;;;6.00;99.90;;;;;;5053376;28;20191;-70
2024/02/25 04:50:05;;;;;;;1.00;0.90;;;6.10;99.90;;;;;;5053398;28;20174;-70
2024/02/25 04:52:31;;;;;;;0.80;0.73;;;6.10;99.90;;;;;;5052935;28;20178;-70
2024/02/25 04:54:56;;;;;;;0.80;0.70;;;6.20;99.90;;;;;;5053103;28;20397;-70
2024/02/25 04:57:22;;;;;;;0.80;0.63;;;6.30;99.90;;;;;;5052818;28;20286;-70
2024/02/25 04:59:48;;;;;;;1.00;0.80;;;6.30;99.90;;;;;;5047214;28;20546;-70
2024/02/25 05:02:14;;;;;;;1.07;0.70;;;6.30;99.90;;;;;;5052502;28;20409;-70
2024/02/25 05:04:40;;;;;;;0.80;0.60;;;6.30;99.90;;;;;;5052959;28;20175;-70
2024/02/25 05:07:05;;;;;;;1.10;0.80;;;6.20;99.90;;;;;;5053053;28;20194;-70
2024/02/25 05:09:31;;;;;;;1.30;0.70;;;6.30;99.90;;;;;;5053045;28;20402;-70
2024/02/25 05:11:56;;;;;;;1.00;0.70;;;6.30;99.90;;;;;;5052740;28;20167;-70
2024/02/25 05:14:22;;;;;;;0.80;0.70;;;6.40;99.90;;;;;;5052901;28;20182;-70
2024/02/25 05:16:47;;;;;;;1.17;0.73;;;6.30;99.90;;;;;;5050544;28;20209;-70
2024/02/25 05:19:14;;;;;;;3.53;0.80;;;6.30;99.90;;;;;;5048349;28;20186;-70
2024/02/25 05:21:41;;;;;;;1.40;0.80;;;6.30;99.90;;;;;;5052271;28;20701;-71
2024/02/25 05:24:07;;;;;;;1.00;0.80;;;6.30;99.90;;;;;;5052410;28;20492;-70
2024/02/25 05:26:33;;;;;;;5.57;0.70;;;6.40;99.90;;;;;;5052569;28;20417;-70
2024/02/25 05:28:59;;;;;;;1.37;0.70;;;6.40;99.90;;;;;;5044176;28;20427;-69
2024/02/25 05:31:24;;;;;;;0.90;0.50;;;6.30;99.90;;;;;;5052253;28;20175;-70
2024/02/25 05:33:50;;;;;;;1.10;0.80;;;6.30;99.90;;;;;;5051339;28;20171;-70
2024/02/25 05:36:16;;;;;;;1.00;0.67;;;6.40;99.90;;;;;;5052215;28;20285;-70
2024/02/25 05:38:42;;;;;;;0.90;0.50;;;6.40;99.90;;;;;;5051092;28;20167;-71
2024/02/25 05:41:10;;;;;;;1.20;0.73;;;6.30;99.90;;;;;;5052102;28;20878;-71
2024/02/25 05:43:36;;;;;;;1.07;0.70;;;6.30;99.90;;;;;;5052527;28;20641;-70
2024/02/25 05:46:01;;;;;;;2.10;0.73;;;6.30;99.90;;;;;;5052218;28;20410;-70
2024/02/25 05:48:27;;;;;;;0.90;0.73;;;6.30;99.90;;;;;;5052200;28;20193;-70
2024/02/25 05:50:53;;;;;;;0.80;0.60;;;6.40;99.90;;;;;;5052125;28;20653;-71
2024/02/25 05:53:18;;;;;;;0.87;0.80;;;6.40;99.90;;;;;;5052453;28;20186;-70
2024/02/25 05:55:44;;;;;;;1.13;0.60;;;6.40;99.90;;;;;;5052083;28;20285;-70
2024/02/25 05:58:09;;;;;;;0.97;0.70;;;6.40;99.90;;;;;;5051985;28;20274;-70
2024/02/25 06:00:35;;;;;;;0.70;0.50;;;6.30;99.90;;;;;;5047425;28;20547;-70
2024/02/25 06:03:00;;;;;;;1.90;0.87;;;6.40;99.90;;;;;;5051927;28;20164;-70
2024/02/25 06:05:30;;;;;;;0.80;0.70;;;6.40;99.90;;;;;;5052062;28;20537;-70
2024/02/25 06:07:59;;;;;;;2.10;0.90;;;6.50;99.90;;;;;;5051908;28;20274;-70
2024/02/25 06:10:25;;;;;;;1.00;0.67;;;6.50;99.90;;;;;;5051856;28;20479;-70
2024/02/25 06:12:51;;;;;;;1.10;0.73;;;6.50;99.90;;;;;;5051543;28;20417;-71
2024/02/25 06:15:17;;;;;;;4.53;0.70;;;6.50;99.90;;;;;;5051752;28;20574;-70
2024/02/25 06:17:42;;;;;;;0.90;0.80;;;6.30;99.90;;;;;;5051809;28;20428;-70
2024/02/25 06:20:10;;;;;;;1.07;0.67;;;6.40;99.90;;;;;;5051853;28;20892;-71
2024/02/25 06:22:40;;;;;;;0.93;0.83;;;6.30;99.90;;;;;;5050257;28;20167;-70
2024/02/25 06:25:06;;;;;;;0.80;0.60;;;6.40;99.90;;;;;;5066760;28;20462;-70
2024/02/25 06:27:35;;;;;;;1.00;0.80;;;6.40;99.90;;;;;;5051098;28;20433;-71
2024/02/25 06:30:01;;;;;;;0.80;0.70;;;6.30;99.90;;;;;;5044364;28;20421;-70
2024/02/25 06:32:26;;;;;;;0.90;0.60;;;6.40;99.90;;;;;;5049001;28;20758;-70
2024/02/25 06:34:52;;;;;;;1.00;0.73;;;6.40;99.90;;;;;;5051646;28;20404;-70
2024/02/25 06:37:18;;;;;;;0.90;0.70;;;6.50;99.90;;;;;;5055356;28;20205;-70
2024/02/25 06:39:43;;;;;;;1.03;0.70;;;6.40;99.90;;;;;;5055682;28;20181;-70
2024/02/25 06:42:09;;;;;;;1.00;0.67;;;6.50;99.90;;;;;;5055272;28;20166;-70
2024/02/25 06:44:34;;;;;;;1.30;0.90;;;6.50;99.90;;;;;;5055746;28;20174;-70
2024/02/25 06:47:00;;;;;;;1.30;0.80;;;6.40;99.90;;;;;;5054269;28;20195;-70
2024/02/25 06:49:27;;;;;;;1.63;0.70;;;6.50;99.90;;;;;;5055673;28;20420;-70
2024/02/25 06:51:54;;;;;;;1.00;0.80;;;6.40;99.90;;;;;;5055352;28;20268;-70
2024/02/25 06:54:20;;;;;;;0.80;0.50;;;6.40;99.90;;;;;;5055308;28;20401;-70
2024/02/25 06:56:45;;;;;;;1.30;0.60;;;6.50;99.90;;;;;;5055263;28;21049;-70
2024/02/25 06:59:11;;;;;;;1.30;0.80;;;6.60;99.90;;;;;;5055600;28;20463;-70
2024/02/25 07:01:36;;;;;;;0.70;0.60;;;6.70;99.90;;;;;;5053790;28;20213;-70
2024/02/25 07:04:02;;;;;;;0.80;0.70;;;6.60;99.90;;;;;;5055296;28;20529;-70
2024/02/25 07:06:28;;;;;;;1.00;0.70;;;6.60;99.90;;;;;;5055144;28;20193;-70
2024/02/25 07:08:53;;;;;;;0.80;0.60;;;6.70;99.90;;;;;;5055110;28;20171;-70
2024/02/25 07:11:21;;;;;;;0.93;0.60;;;6.70;99.90;;;;;;5054895;28;20163;-70
2024/02/25 07:13:48;;;;;;;1.30;0.67;;;6.80;99.90;;;;;;5055122;28;20182;-70
2024/02/25 07:16:14;;;;;;;0.90;0.60;;;6.90;99.90;;;;;;5054910;28;20548;-70
2024/02/25 07:18:40;;;;;;;0.70;0.60;;;6.90;99.90;;;;;;5054957;28;20480;-70
2024/02/25 07:21:11;;;;;;;0.70;0.50;;;6.90;99.90;;;;;;5055230;28;20394;-70
2024/02/25 07:23:43;;;;;;;0.80;0.67;;;6.90;99.90;;;;;;5054902;28;20892;-70
2024/02/25 07:26:09;;;;;;;1.27;0.67;;;7.00;99.90;;;;;;5054797;28;20546;-70
2024/02/25 07:28:37;;;;;;;1.37;1.00;;;7.00;99.90;;;;;;5049592;28;20513;-70
2024/02/25 07:31:03;;;;;;;0.70;0.50;;;7.00;99.90;;;;;;5054477;28;20411;-70
2024/02/25 07:33:29;;;;;;;0.80;0.60;;;7.00;99.90;;;;;;5054547;28;20413;-70
2024/02/25 07:35:54;;;;;;;0.70;0.50;;;7.10;99.90;;;;;;5054485;28;20449;-70
2024/02/25 07:38:20;;;;;;;0.90;0.70;;;7.00;99.90;;;;;;5054732;28;20425;-70
2024/02/25 07:40:45;;;;;;;0.80;0.70;;;7.00;99.90;;;;;;5054407;28;20179;-70
2024/02/25 07:43:11;;;;;;;1.00;0.90;;;7.10;99.90;;;;;;5054195;28;20212;-70
2024/02/25 07:45:36;;;;;;;1.03;0.60;;;7.10;99.90;;;;;;5053243;28;20167;-71
2024/02/25 07:48:03;;;;;;;0.90;0.70;;;7.10;99.90;;;;;;5054475;28;20681;-70
2024/02/25 07:50:29;;;;;;;0.80;0.70;;;7.30;99.90;;;;;;5054422;28;20171;-70
2024/02/25 07:52:54;;;;;;;0.80;0.60;;;7.30;99.90;;;;;;5054039;28;20430;-70
2024/02/25 07:55:20;;;;;;;0.70;0.50;;;7.30;99.90;;;;;;5054219;28;20436;-70
2024/02/25 07:57:46;;;;;;;1.43;0.70;;;7.20;99.90;;;;;;5054305;28;20261;-70
2024/02/25 08:00:12;;;;;;;0.90;0.70;;;7.40;99.90;;;;;;5054343;28;20837;-70
2024/02/25 08:02:37;;;;;;;1.00;0.80;;;7.40;99.90;;;;;;5053947;28;20178;-71
2024/02/25 08:05:05;;;;;;;0.70;0.50;;;7.50;99.90;;;;;;5054190;28;20897;-69
2024/02/25 08:07:31;;;;;;;0.80;0.63;;;7.50;99.90;;;;;;5053974;28;20256;-70
2024/02/25 08:09:56;;;;;;;1.70;0.50;;;7.60;99.90;;;;;;5045453;28;20417;-70
2024/02/25 08:12:22;;;;;;;0.70;0.60;;;7.90;99.90;;;;;;5051539;28;20186;-71
2024/02/25 08:14:47;;;;;;;0.90;0.70;;;8.10;99.90;;;;;;5049187;28;20194;-70
2024/02/25 08:17:13;;;;;;;0.90;0.77;;;8.70;99.90;;;;;;5053708;28;20211;-70
2024/02/25 08:19:41;;;;;;;0.80;0.60;;;9.60;99.90;;;;;;5053869;28;20554;-70
2024/02/25 08:22:06;;;;;;;1.10;0.80;;;9.90;99.90;;;;;;5053703;28;20220;-70
2024/02/25 08:24:32;;;;;;;1.00;0.90;;;10.40;99.90;;;;;;5052472;28;20496;-70
2024/02/25 08:26:58;;;;;;;0.80;0.50;;;11.10;99.90;;;;;;5053842;28;20187;-70
2024/02/25 08:29:23;;;;;;;0.80;0.60;;;11.70;99.90;;;;;;5046533;28;20526;-70
2024/02/25 08:31:49;;;;;;;0.70;0.50;;;11.80;99.90;;;;;;5047484;28;20175;-70
2024/02/25 08:34:14;;;;;;;1.00;0.90;;;11.40;99.90;;;;;;5053522;28;20232;-71
2024/02/25 08:36:40;;;;;;;1.00;0.60;;;11.10;99.90;;;;;;5053499;28;20213;-70
2024/02/25 08:39:06;;;;;;;0.73;0.57;;;10.80;99.90;;;;;;5053490;28;20653;-70
2024/02/25 08:41:31;;;;;;;1.00;0.70;;;10.60;99.90;;;;;;5053267;28;20175;-71
2024/02/25 08:43:57;;;;;;;0.87;0.70;;;10.40;99.90;;;;;;5053315;28;20170;-70
2024/02/25 08:46:22;;;;;;;0.80;0.60;;;10.40;99.90;;;;;;5053188;28;20634;-70
2024/02/25 08:48:48;;;;;;;0.80;0.60;;;10.60;99.90;;;;;;5052006;28;20209;-67
2024/02/25 08:51:14;;;;;;;0.80;0.60;;;10.60;99.90;;;;;;5044891;28;20183;-67
2024/02/25 08:53:40;;;;;;;0.80;0.60;;;10.90;99.90;;;;;;5049024;28;20273;-67
2024/02/25 08:56:06;;;;;;;0.80;0.60;;;11.30;99.90;;;;;;5053216;28;20187;-67
2024/02/25 08:58:33;;;;;;;0.80;0.80;;;11.40;99.90;;;;;;5042323;28;20194;-67
2024/02/25 09:00:58;;;;;;;1.80;0.83;;;11.60;99.90;;;;;;5034382;28;20425;-67
2024/02/25 09:03:24;;;;;;;0.83;0.70;;;11.70;99.90;;;;;;5037012;28;20419;-67
2024/02/25 09:05:50;;;;;;;0.83;0.67;;;11.80;99.90;;;;;;5052403;28;20174;-67
2024/02/25 09:08:16;;;;;;;3.57;0.80;;;11.70;99.90;;;;;;5052788;28;20267;-67
2024/02/25 09:10:42;;;;;;;1.60;0.73;;;11.80;99.90;;;;;;5052849;28;20177;-67
2024/02/25 09:13:07;;;;;;;1.10;0.70;;;12.10;99.90;;;;;;5052708;28;20409;-67
2024/02/25 09:15:33;;;;;;;0.80;0.60;;;12.60;99.90;;;;;;5053067;28;20775;-67
2024/02/25 09:18:00;;;;;;;1.30;0.77;;;13.30;99.90;;;;;;5052853;28;20194;-67
2024/02/25 09:20:29;;;;;;;1.47;0.70;;;14.90;99.90;;;;;;5052910;28;20626;-67
2024/02/25 09:22:55;;;;;;;1.00;0.80;;;17.40;92.90;;;;;;5052493;28;20466;-66
2024/02/25 09:25:20;;;;;;;1.00;0.90;;;20.40;74.80;;;;;;5052794;28;20402;-66
2024/02/25 09:27:46;;;;;;;1.00;0.80;;;22.70;58.50;;;;;;5052636;28;20183;-66
2024/02/25 09:30:14;;;;;;;1.00;0.90;;;24.00;48.10;;;;;;5052716;28;20515;-67
2024/02/25 09:32:39;;;;;;;1.00;0.80;;;24.80;43.10;;;;;;5052288;28;20186;-66
2024/02/25 09:35:05;;;;;;;0.90;0.80;;;23.90;40.90;;;;;;5052673;28;20397;-66
2024/02/25 09:37:31;;;;;;;0.90;0.80;;;23.60;41.50;;;;;;5048541;28;20351;-66
2024/02/25 09:39:56;;;;;;;1.00;0.90;;;22.40;39.50;;;;;;5050649;28;20246;-66
2024/02/25 09:42:22;;;;;;;0.90;0.77;;;22.90;42.90;;;;;;5047369;28;20178;-66
2024/02/25 09:44:52;;;;;;;1.13;1.03;;;24.00;41.80;;;;;;5052283;28;20194;-66
2024/02/25 09:47:19;;;;;;;1.20;1.10;;;25.10;40.20;;;;;;5046919;28;20194;-66
2024/02/25 09:49:47;;;;;;;1.30;1.20;;;25.80;37.40;;;;;;5052296;28;20927;-67
2024/02/25 09:52:14;;;;;;;1.00;0.90;;;26.00;35.90;;;;;;5051895;28;20987;-66
2024/02/25 09:54:40;;;;;;;1.10;1.00;;;25.20;35.50;;;;;;5040882;28;20568;-66
2024/02/25 09:57:06;;;;;;;1.20;1.10;;;24.60;35.80;;;;;;5035971;28;20890;-66
2024/02/25 09:59:31;;;;;;;1.20;1.10;;;25.10;36.60;;;;;;5045947;28;20498;-66
2024/02/25 10:01:57;;;;;;;1.37;1.27;;;25.20;35.90;;;;;;5042528;28;20174;-66
2024/02/25 10:04:25;;;;;;;1.13;1.00;;;23.80;35.70;;;;;;5040480;28;20220;-66
2024/02/25 10:06:50;;;;;;;1.27;1.13;;;22.10;36.30;;;;;;5047630;28;20191;-66
2024/02/25 10:09:28;;;;;;;1.30;1.20;;;22.10;39.60;;;;;;5039262;28;20421;-66
2024/02/25 10:11:53;;;;;;;1.43;1.33;;;23.60;39.00;;;;;;5045989;28;20266;-66
2024/02/25 10:14:19;;;;;;;1.30;1.20;;;24.00;38.00;;;;;;5051791;28;20841;-66
2024/02/25 10:17:05;;;;;;;1.10;1.00;;;24.40;37.50;;;;;;5051585;28;20222;-66
2024/02/25 10:19:31;;;;;;;1.20;0.90;;;23.70;36.20;;;;;;5051969;28;20167;-66
2024/02/25 10:22:11;;;;;;;1.10;1.00;;;22.80;35.90;;;;;;5051633;28;20775;-66
2024/02/25 10:24:39;;;;;;;1.87;1.20;;;20.90;36.10;;;;;;5051760;28;20425;-66
2024/02/25 10:27:08;;;;;;;1.27;1.17;;;19.20;37.90;;;;;;5051349;28;20436;-66
2024/02/25 10:29:51;;;;;;;1.10;0.90;;;18.40;40.10;;;;;;5045816;28;20752;-66
2024/02/25 10:32:28;;;;;;;1.70;1.13;;;17.70;41.50;;;;;;5040983;28;20406;-66
2024/02/25 10:34:58;;;;;;;2.20;0.90;;;17.40;42.70;;;;;;5039608;28;20752;-66
2024/02/25 10:37:27;;;;;;;1.30;1.00;;;17.30;42.80;;;;;;5039488;28;21094;-66
2024/02/25 10:39:55;;;;;;;3.80;2.97;;;16.70;43.60;;;;;;5031762;28;20413;-66
2024/02/25 10:42:24;;;;;;;1.00;0.87;;;16.50;44.70;;;;;;5030187;28;20406;-66
2024/02/25 10:44:59;;;;;;;2.10;1.60;;;16.40;44.60;;;;;;5031571;28;20473;-66
2024/02/25 10:47:26;;;;;;;1.20;1.00;;;16.40;44.60;;;;;;5031667;28;20998;-66
2024/02/25 10:49:54;;;;;;;1.40;0.90;;;16.50;45.10;;;;;;5031349;28;20819;-66
2024/02/25 10:52:21;;;;;;;3.63;1.17;;;16.60;45.50;;;;;;5031212;28;20448;-66
2024/02/25 10:54:49;;;;;;;1.40;1.07;;;18.60;47.60;;;;;;5038406;28;20464;-66
2024/02/25 10:57:16;;;;;;;1.93;1.00;;;21.90;42.30;;;;;;5046068;28;20812;-66
2024/02/25 10:59:42;;;;;;;2.33;1.00;;;24.80;39.80;;;;;;5046226;28;20425;-66
2024/02/25 11:02:10;;;;;;;2.17;1.00;;;25.00;35.40;;;;;;5051326;28;20928;-66
2024/02/25 11:04:37;;;;;;;2.50;1.57;;;25.80;34.60;;;;;;5051427;28;20448;-66
2024/02/25 11:07:04;;;;;;;1.00;0.90;;;25.40;32.90;;;;;;5051297;28;20425;-67
2024/02/25 11:09:30;;;;;;;4.33;1.20;;;25.40;33.00;;;;;;5051609;28;20463;-67
2024/02/25 11:12:19;;;;;;;1.20;1.10;;;26.80;32.50;;;;;;5051182;28;20505;-67
2024/02/25 11:15:05;;;;;;;1.20;1.07;;;26.80;30.80;;;;;;5051284;28;20496;-67
2024/02/25 11:17:35;;;;;;;1.30;1.20;;;27.00;33.00;;;;;;5051368;28;20455;-67
2024/02/25 11:20:08;;;;;;;1.80;1.00;;;28.10;30.80;;;;;;5051442;28;20404;-67
2024/02/25 11:22:46;;;;;;;1.57;1.00;;;27.50;29.70;;;;;;5053926;28;20393;-67
2024/02/25 11:25:30;;;;;;;1.10;0.90;;;25.90;29.70;;;;;;5042475;28;20782;-66
2024/02/25 11:28:15;;;;;;;1.30;1.20;;;24.80;31.30;;;;;;5047604;28;20443;-66
2024/02/25 11:30:43;;;;;;;1.23;1.13;;;22.60;31.80;;;;;;5051463;28;20413;-66
2024/02/25 11:33:25;;;;;;;1.03;0.93;;;21.40;33.80;;;;;;5054390;28;20425;-66
2024/02/25 11:35:51;;;;;;;1.00;0.90;;;18.90;35.20;;;;;;5054676;28;20458;-66
2024/02/25 11:38:26;;;;;;;1.20;0.90;;;17.50;38.20;;;;;;5054670;28;20425;-66
2024/02/25 11:40:52;;;;;;;1.00;0.90;;;17.30;40.80;;;;;;5054675;28;20405;-66
2024/02/25 11:43:17;;;;;;;1.00;0.90;;;18.10;41.90;;;;;;5054418;28;20847;-67
2024/02/25 11:45:43;;;;;;;1.10;0.90;;;20.50;41.90;;;;;;5054559;28;20409;-67
2024/02/25 11:48:08;;;;;;;1.50;0.90;;;21.20;38.30;;;;;;5054315;28;20206;-67
2024/02/25 11:50:34;;;;;;;2.33;1.23;;;22.70;36.90;;;;;;5054617;28;20170;-67
2024/02/25 11:53:03;;;;;;;3.53;1.20;;;23.70;37.10;;;;;;5054116;28;20198;-67
2024/02/25 11:55:29;;;;;;;1.30;1.20;;;25.80;35.40;;;;;;5054388;28;20539;-67
2024/02/25 11:57:55;;;;;;;1.20;1.10;;;26.40;31.50;;;;;;5054318;28;20528;-67
2024/02/25 12:00:21;;;;;;;1.63;1.23;;;24.30;31.00;;;;;;5054395;28;20167;-67
2024/02/25 12:02:47;;;;;;;1.43;1.33;;;22.50;32.20;;;;;;5053840;28;20178;-66
2024/02/25 12:05:14;;;;;;;5.20;1.30;;;20.90;33.60;;;;;;5054250;28;20757;-66
2024/02/25 12:07:39;;;;;;;1.10;1.00;;;19.20;36.20;;;;;;5054216;28;20464;-66
2024/02/25 12:10:07;;;;;;;3.70;1.03;;;17.90;38.20;;;;;;5054128;28;20441;-66
2024/02/25 12:12:32;;;;;;;1.23;1.13;;;16.90;39.10;;;;;;5049860;28;20175;-66
2024/02/25 12:14:59;;;;;;;1.83;1.30;;;16.40;41.10;;;;;;5040850;28;21679;-66
2024/02/25 12:17:25;;;;;;;0.90;0.70;;;15.90;42.20;;;;;;5053549;28;20198;-66
2024/02/25 12:19:53;;;;;;;1.37;1.20;;;15.70;42.70;;;;;;5053621;28;20935;-66
2024/02/25 12:22:22;;;;;;;0.97;0.87;;;15.50;43.50;;;;;;5053516;28;20170;-66
2024/02/25 12:24:52;;;;;;;1.63;1.20;;;15.40;43.50;;;;;;5050542;28;20420;-66
2024/02/25 12:27:20;;;;;;;1.60;1.50;;;15.20;43.50;;;;;;5053623;28;20429;-66
2024/02/25 12:29:48;;;;;;;1.40;1.20;;;15.00;44.20;;;;;;5053554;28;20413;-65
2024/02/25 12:32:14;;;;;;;4.23;1.27;;;15.00;44.70;;;;;;5052938;28;20502;-65
2024/02/25 12:34:40;;;;;;;1.73;1.00;;;14.80;44.80;;;;;;5052857;28;20405;-66
2024/02/25 12:37:05;;;;;;;1.77;0.80;;;14.40;45.60;;;;;;5053488;28;20538;-66
2024/02/25 12:39:39;;;;;;;3.13;0.90;;;14.20;46.70;;;;;;5053637;28;20194;-66
2024/02/25 12:42:05;;;;;;;1.10;0.90;;;13.80;47.60;;;;;;5053261;28;20191;-66
2024/02/25 12:44:31;;;;;;;2.00;0.87;;;13.30;47.90;;;;;;5053126;28;20777;-66
2024/02/25 12:47:00;;;;;;;2.77;1.03;;;13.10;49.20;;;;;;5053188;28;20429;-66
2024/02/25 12:49:26;;;;;;;1.23;0.77;;;12.80;49.50;;;;;;5053456;28;20405;-66